Time;durP1;ratioP1;P1;durP2;ratioP2;P2;SDS_P1;SDS_P2;PMS_P1;PMS_P2;Temp;Humidity;BMP_temperature;BMP_pressure;BME280_temperature;BME280_humidity;BME280_pressure;Samples;Min_cycle;Max_cycle;Signal;HPM_P1;HPM_P2
2021/06/30 00:00:15;;;;;;;8.65;7.47;;;743.00;1996.80;;;;;;5071808;28;20833;-75
2021/06/30 00:02:41;;;;;;;8.65;7.75;;;742.90;1996.80;;;;;;5082153;28;20073;-74
2021/06/30 00:05:10;;;;;;;12.30;7.38;;;743.00;1996.80;;;;;;5078234;28;20236;-75
2021/06/30 00:07:37;;;;;;;10.85;6.97;;;742.90;1996.80;;;;;;5073076;28;20423;-75
2021/06/30 00:10:05;;;;;;;10.05;7.00;;;742.90;1996.80;;;;;;5073066;28;20024;-75
2021/06/30 00:12:31;;;;;;;8.82;6.95;;;742.90;1996.80;;;;;;5070050;28;20028;-75
2021/06/30 00:14:57;;;;;;;9.18;6.68;;;742.90;2022.40;;;;;;5066906;28;20039;-75
2021/06/30 00:17:23;;;;;;;7.90;7.10;;;742.90;1996.80;;;;;;5091860;28;20023;-74
2021/06/30 00:19:49;;;;;;;7.22;6.40;;;742.90;1996.80;;;;;;5074943;28;20904;-75
2021/06/30 00:22:15;;;;;;;11.02;6.53;;;742.90;2022.40;;;;;;5072624;28;20141;-75
2021/06/30 00:24:41;;;;;;;8.60;6.80;;;742.80;2022.40;;;;;;5059348;28;20028;-75
2021/06/30 00:27:06;;;;;;;7.40;6.30;;;742.80;2022.40;;;;;;5051273;28;20151;-75
2021/06/30 00:29:33;;;;;;;6.78;6.13;;;742.80;2022.40;;;;;;5066738;28;20065;-76
2021/06/30 00:32:02;;;;;;;7.95;6.47;;;742.80;2022.40;;;;;;5064027;28;20021;-75
2021/06/30 00:34:34;;;;;;;8.85;7.85;;;742.80;2022.40;;;;;;5052115;28;20020;-75
2021/06/30 00:37:03;;;;;;;11.68;8.30;;;742.70;2048.00;;;;;;5056471;28;20028;-75
2021/06/30 00:39:29;;;;;;;12.30;8.38;;;742.80;2048.00;;;;;;5070677;28;20030;-75
2021/06/30 00:42:00;;;;;;;13.27;7.57;;;742.70;2048.00;;;;;;5057053;28;20649;-75
2021/06/30 00:44:26;;;;;;;8.43;6.72;;;742.80;2048.00;;;;;;5059336;28;20082;-76
2021/06/30 00:46:52;;;;;;;8.75;6.40;;;742.70;2048.00;;;;;;5052982;28;20115;-75
2021/06/30 00:49:23;;;;;;;12.68;6.95;;;742.80;2048.00;;;;;;5060726;28;20040;-75
2021/06/30 00:51:52;;;;;;;8.90;6.78;;;742.80;2073.60;;;;;;5055731;28;20021;-75
2021/06/30 00:54:17;;;;;;;11.15;7.43;;;742.70;2073.60;;;;;;5058350;28;20029;-75
2021/06/30 00:56:44;;;;;;;11.20;7.78;;;742.70;2073.60;;;;;;5076161;28;20394;-74
2021/06/30 00:59:12;;;;;;;9.25;7.22;;;742.70;2073.60;;;;;;5057327;28;20398;-75
2021/06/30 01:01:39;;;;;;;15.77;7.70;;;742.60;2099.20;;;;;;5071894;28;20036;-76
2021/06/30 01:04:04;;;;;;;10.05;7.40;;;742.60;2099.20;;;;;;5056470;28;20024;-74
2021/06/30 01:06:33;;;;;;;10.43;7.88;;;742.60;2099.20;;;;;;5059260;28;20040;-74
2021/06/30 01:09:04;;;;;;;10.73;7.55;;;742.60;2099.20;;;;;;5067705;28;20493;-75
2021/06/30 01:11:34;;;;;;;9.00;7.63;;;742.60;2099.20;;;;;;5060100;28;20045;-74
2021/06/30 01:14:03;;;;;;;10.75;7.82;;;742.60;2124.80;;;;;;5050829;28;20087;-75
2021/06/30 01:16:32;;;;;;;14.05;8.43;;;742.60;2124.80;;;;;;5059376;28;20033;-75
2021/06/30 01:18:58;;;;;;;12.63;9.02;;;742.50;2124.80;;;;;;5057749;28;20033;-75
2021/06/30 01:21:24;;;;;;;14.50;11.15;;;742.50;2124.80;;;;;;5064133;28;20035;-75
2021/06/30 01:23:49;;;;;;;14.68;11.80;;;742.40;2150.40;;;;;;5049939;28;20029;-75
2021/06/30 01:26:33;;;;;;;13.40;10.98;;;742.40;2150.40;;;;;;5082562;28;20052;-76
2021/06/30 01:29:05;;;;;;;15.55;10.30;;;742.40;2124.80;;;;;;5077201;28;20514;-75
2021/06/30 01:31:34;;;;;;;11.73;8.48;;;717.70;2124.80;;;;;;5074940;28;20036;-75
2021/06/30 01:33:59;;;;;;;10.63;7.55;;;717.70;2099.20;;;;;;5083585;28;20027;-75
2021/06/30 01:36:25;;;;;;;13.25;9.50;;;717.70;2124.80;;;;;;5067585;28;20406;-76
2021/06/30 01:38:51;;;;;;;12.32;9.70;;;717.70;2124.80;;;;;;5053011;28;20016;-76
2021/06/30 01:41:17;;;;;;;13.93;8.20;;;717.70;2124.80;;;;;;5053297;28;20120;-76
2021/06/30 01:43:46;;;;;;;17.92;8.93;;;717.60;2124.80;;;;;;5071333;28;20025;-76
2021/06/30 01:46:11;;;;;;;10.93;8.15;;;717.60;2124.80;;;;;;5053665;28;20025;-75
2021/06/30 01:48:37;;;;;;;10.68;7.60;;;717.60;2124.80;;;;;;5067649;28;20490;-75
2021/06/30 01:51:03;;;;;;;20.83;8.60;;;717.50;2124.80;;;;;;5070430;28;20055;-76
2021/06/30 01:53:28;;;;;;;11.85;8.25;;;717.50;2124.80;;;;;;5075482;28;20055;-74
2021/06/30 01:56:06;;;;;;;12.27;9.48;;;717.50;2124.80;;;;;;5069942;28;20021;-75
2021/06/30 01:58:35;;;;;;;15.00;12.90;;;717.50;2124.80;;;;;;5074676;28;20795;-75
2021/06/30 02:01:04;;;;;;;22.13;15.48;;;717.50;2150.40;;;;;;5091818;28;20462;-74
2021/06/30 02:03:29;;;;;;;20.50;13.25;;;717.50;2150.40;;;;;;5057571;28;20025;-74
2021/06/30 02:05:55;;;;;;;21.92;12.45;;;717.40;2150.40;;;;;;5079552;28;20359;-74
2021/06/30 02:08:21;;;;;;;12.88;10.10;;;717.40;2176.00;;;;;;5059142;28;20036;-74
2021/06/30 02:10:47;;;;;;;15.73;11.65;;;717.30;2176.00;;;;;;5073590;28;20028;-74
2021/06/30 02:13:13;;;;;;;16.52;11.10;;;717.30;2176.00;;;;;;5079789;28;20031;-74
2021/06/30 02:15:41;;;;;;;16.23;10.18;;;717.30;2201.60;;;;;;5071525;28;20181;-75
2021/06/30 02:18:07;;;;;;;22.45;10.45;;;717.20;2201.60;;;;;;5063632;28;20482;-75
2021/06/30 02:20:36;;;;;;;10.43;8.70;;;717.20;2201.60;;;;;;5075251;28;20055;-75
2021/06/30 02:23:05;;;;;;;17.60;8.27;;;717.10;2201.60;;;;;;5080194;28;20087;-74
2021/06/30 02:25:31;;;;;;;12.85;8.85;;;717.10;2227.20;;;;;;5071514;28;20040;-75
2021/06/30 02:27:58;;;;;;;14.23;9.00;;;717.10;2227.20;;;;;;5060639;28;20440;-74
2021/06/30 02:30:29;;;;;;;13.75;10.70;;;717.00;2227.20;;;;;;5067807;28;20556;-75
2021/06/30 02:33:07;;;;;;;15.15;9.57;;;717.10;2227.20;;;;;;5073036;28;20517;-75
2021/06/30 02:35:36;;;;;;;11.35;8.65;;;717.10;2252.80;;;;;;5071383;28;20028;-75
2021/06/30 02:38:08;;;;;;;13.85;9.13;;;717.00;2252.80;;;;;;5071121;28;20082;-75
2021/06/30 02:40:37;;;;;;;14.65;9.55;;;717.00;2252.80;;;;;;5078977;28;20108;-75
2021/06/30 02:43:06;;;;;;;16.77;11.57;;;717.00;2278.40;;;;;;5059134;28;20036;-75
2021/06/30 02:45:38;;;;;;;17.05;13.15;;;717.10;2278.40;;;;;;5071457;28;20023;-75
2021/06/30 02:48:04;;;;;;;25.42;12.63;;;716.90;2278.40;;;;;;5066218;28;20114;-75
2021/06/30 02:50:30;;;;;;;24.95;13.57;;;716.90;2278.40;;;;;;5073113;28;20418;-74
2021/06/30 02:52:56;;;;;;;15.20;11.73;;;716.90;2304.00;;;;;;5074517;28;20024;-75
2021/06/30 02:55:21;;;;;;;12.68;11.00;;;716.80;2304.00;;;;;;5059841;28;20035;-75
2021/06/30 02:57:49;;;;;;;16.20;10.73;;;716.80;2304.00;;;;;;5094811;28;20591;-75
2021/06/30 03:00:21;;;;;;;15.95;12.10;;;716.80;2304.00;;;;;;5094811;28;20099;-74
2021/06/30 03:02:48;;;;;;;19.20;11.65;;;692.10;2304.00;;;;;;5068558;28;20042;-75
2021/06/30 03:05:13;;;;;;;15.65;10.98;;;692.10;2304.00;;;;;;5089319;28;20019;-75
2021/06/30 03:07:39;;;;;;;15.27;11.77;;;692.00;2304.00;;;;;;5086894;28;20035;-74
2021/06/30 03:10:11;;;;;;;13.27;10.25;;;692.00;2304.00;;;;;;5088771;28;20021;-75
2021/06/30 03:12:37;;;;;;;16.00;11.27;;;692.00;2329.60;;;;;;5069791;28;20024;-75
2021/06/30 03:15:08;;;;;;;17.17;10.63;;;691.90;2329.60;;;;;;5075309;28;20542;-76
2021/06/30 03:17:48;;;;;;;15.60;9.88;;;691.90;2329.60;;;;;;5069314;28;20028;-76
2021/06/30 03:20:15;;;;;;;14.25;10.07;;;691.80;2355.20;;;;;;5075781;28;20025;-75
2021/06/30 03:22:42;;;;;;;25.27;12.40;;;691.80;2355.20;;;;;;5070577;28;20050;-75
2021/06/30 03:25:14;;;;;;;18.38;11.20;;;691.80;2355.20;;;;;;5077229;28;20028;-76
2021/06/30 03:27:41;;;;;;;18.70;12.00;;;691.80;2355.20;;;;;;5089871;28;20032;-75
2021/06/30 03:30:09;;;;;;;21.60;15.95;;;691.80;2355.20;;;;;;5089553;28;20037;-75
2021/06/30 03:32:35;;;;;;;36.05;23.20;;;691.80;2355.20;;;;;;5068305;28;20443;-75
2021/06/30 03:35:02;;;;;;;19.45;15.63;;;691.80;2380.80;;;;;;5076623;28;20099;-76
2021/06/30 03:37:28;;;;;;;20.95;14.05;;;691.70;2380.80;;;;;;5076212;28;20071;-75
2021/06/30 03:39:58;;;;;;;16.00;12.68;;;691.80;2355.20;;;;;;5078230;28;20052;-75
2021/06/30 03:42:30;;;;;;;17.58;10.77;;;691.80;2355.20;;;;;;5055769;28;20033;-75
2021/06/30 03:45:08;;;;;;;13.10;10.82;;;691.80;2355.20;;;;;;5073630;28;20865;-75
2021/06/30 03:47:34;;;;;;;16.15;10.80;;;691.70;2380.80;;;;;;5064905;28;20436;-75
2021/06/30 03:50:00;;;;;;;17.48;11.70;;;691.70;2380.80;;;;;;5060535;28;20433;-75
2021/06/30 03:52:29;;;;;;;15.32;10.68;;;691.70;2380.80;;;;;;5073303;28;20031;-75
2021/06/30 03:55:00;;;;;;;17.73;11.40;;;691.70;2380.80;;;;;;5073634;28;20044;-74
2021/06/30 03:57:26;;;;;;;17.00;10.30;;;691.70;2380.80;;;;;;5073314;28;20391;-77
2021/06/30 03:59:52;;;;;;;22.05;12.10;;;691.70;2380.80;;;;;;5067669;28;20039;-77
2021/06/30 04:02:21;;;;;;;18.67;10.85;;;691.70;2380.80;;;;;;5088748;28;20021;-77
2021/06/30 04:04:50;;;;;;;19.55;10.75;;;691.70;2380.80;;;;;;5069408;28;20479;-77
2021/06/30 04:07:15;;;;;;;31.20;13.65;;;691.70;2355.20;;;;;;5090400;28;20036;-79
2021/06/30 04:09:41;;;;;;;15.20;10.80;;;691.70;2355.20;;;;;;5056810;28;20372;-77
2021/06/30 04:12:10;;;;;;;18.83;11.27;;;691.80;2355.20;;;;;;5066882;28;20035;-77
2021/06/30 04:14:39;;;;;;;16.10;10.63;;;691.80;2355.20;;;;;;5054174;28;20433;-77
2021/06/30 04:17:04;;;;;;;15.10;11.15;;;691.90;2329.60;;;;;;5077357;28;20028;-77
2021/06/30 04:19:30;;;;;;;15.98;11.25;;;692.00;2329.60;;;;;;5067205;28;20058;-75
2021/06/30 04:21:56;;;;;;;19.63;11.45;;;716.80;2355.20;;;;;;5089773;28;20008;-78
2021/06/30 04:24:22;;;;;;;17.35;11.05;;;717.00;2329.60;;;;;;5087793;28;20043;-78
2021/06/30 04:26:48;;;;;;;16.60;10.43;;;717.00;2329.60;;;;;;5080444;28;20044;-78
2021/06/30 04:29:14;;;;;;;16.60;10.18;;;717.00;2329.60;;;;;;5083132;28;20013;-78
2021/06/30 04:31:42;;;;;;;15.32;10.80;;;717.00;2329.60;;;;;;5100359;28;20020;-79
2021/06/30 04:34:11;;;;;;;20.85;10.48;;;717.00;2329.60;;;;;;5088072;28;20092;-78
2021/06/30 04:36:43;;;;;;;21.25;12.38;;;717.10;2304.00;;;;;;5083181;28;20039;-77
2021/06/30 04:39:15;;;;;;;20.48;11.25;;;717.30;2304.00;;;;;;5065232;28;20170;-78
2021/06/30 04:41:41;;;;;;;16.98;11.02;;;717.50;2278.40;;;;;;5072885;28;20142;-77
2021/06/30 04:44:07;;;;;;;18.23;10.30;;;717.60;2252.80;;;;;;5072532;28;20033;-76
2021/06/30 04:46:32;;;;;;;17.77;11.90;;;717.70;2252.80;;;;;;5086994;28;20031;-76
2021/06/30 04:49:01;;;;;;;15.90;10.80;;;717.70;2252.80;;;;;;5054632;28;20642;-77
2021/06/30 04:51:33;;;;;;;20.13;12.68;;;742.40;2278.40;;;;;;5067764;28;20028;-77
2021/06/30 04:54:01;;;;;;;16.30;10.80;;;742.50;2252.80;;;;;;5075686;28;20029;-77
2021/06/30 04:56:39;;;;;;;16.65;10.40;;;742.70;2252.80;;;;;;5067667;28;20411;-77
2021/06/30 04:59:08;;;;;;;18.55;12.00;;;742.90;2227.20;;;;;;5055805;28;20395;-77
2021/06/30 05:01:34;;;;;;;20.90;11.52;;;742.90;2201.60;;;;;;5066186;28;20028;-77
2021/06/30 05:04:03;;;;;;;20.70;11.02;;;743.00;2201.60;;;;;;5069262;28;20058;-77
2021/06/30 05:06:36;;;;;;;16.60;11.57;;;743.10;2201.60;;;;;;5071858;28;20074;-78
2021/06/30 05:09:03;;;;;;;19.45;11.25;;;743.20;2176.00;;;;;;5073089;28;20390;-77
2021/06/30 05:11:30;;;;;;;22.08;10.68;;;768.10;2176.00;;;;;;5080143;28;20051;-77
2021/06/30 05:14:05;;;;;;;18.27;9.38;;;768.30;2124.80;;;;;;5057377;28;20094;-76
2021/06/30 05:16:38;;;;;;;14.82;11.18;;;768.50;2099.20;;;;;;5073644;28;20028;-77
2021/06/30 05:19:04;;;;;;;16.73;10.88;;;768.70;2073.60;;;;;;5069146;28;20032;-77
2021/06/30 05:21:33;;;;;;;20.85;10.80;;;793.60;2073.60;;;;;;5065744;28;20115;-77
2021/06/30 05:24:04;;;;;;;19.23;11.05;;;793.80;2048.00;;;;;;5070768;28;20024;-77
2021/06/30 05:26:36;;;;;;;24.70;10.88;;;794.20;2022.40;;;;;;5063338;28;20055;-78
2021/06/30 05:29:08;;;;;;;22.80;11.32;;;794.50;1971.20;;;;;;5077299;28;20467;-78
2021/06/30 05:31:36;;;;;;;17.50;10.32;;;819.30;1971.20;;;;;;5089570;28;20012;-78
2021/06/30 05:34:05;;;;;;;20.63;10.15;;;819.40;1920.00;;;;;;5063896;28;20394;-78
2021/06/30 05:36:37;;;;;;;22.67;9.80;;;819.70;1920.00;;;;;;5087788;28;20059;-78
2021/06/30 05:39:06;;;;;;;16.30;9.68;;;819.80;1894.40;;;;;;5092281;28;20027;-77
2021/06/30 05:41:34;;;;;;;21.33;10.05;;;820.10;1894.40;;;;;;5059453;28;20031;-77
2021/06/30 05:44:00;;;;;;;20.35;10.20;;;844.90;1894.40;;;;;;5091534;28;20029;-77
2021/06/30 05:46:26;;;;;;;22.25;10.75;;;845.00;1868.80;;;;;;5060046;28;20024;-77
2021/06/30 05:48:55;;;;;;;17.55;8.75;;;845.10;1868.80;;;;;;5059137;28;20050;-78
2021/06/30 05:51:20;;;;;;;14.63;8.60;;;845.30;1843.20;;;;;;5091312;28;20025;-78
2021/06/30 05:53:52;;;;;;;16.02;8.63;;;845.40;1843.20;;;;;;5069167;28;20034;-77
2021/06/30 05:56:37;;;;;;;15.95;9.00;;;845.50;1817.60;;;;;;5071654;28;20097;-77
2021/06/30 05:59:06;;;;;;;14.30;8.03;;;870.40;1792.00;;;;;;5091661;28;20020;-77
2021/06/30 06:01:48;;;;;;;18.98;9.18;;;870.40;1792.00;;;;;;5070976;28;20056;-77
2021/06/30 06:04:14;;;;;;;13.23;8.80;;;870.80;1792.00;;;;;;5059190;28;20028;-76
2021/06/30 06:06:39;;;;;;;23.65;9.38;;;870.90;1740.80;;;;;;5079050;28;20024;-77
2021/06/30 06:09:08;;;;;;;15.00;9.57;;;871.10;1715.20;;;;;;5072807;28;20028;-76
2021/06/30 06:11:37;;;;;;;20.42;9.52;;;871.20;1664.00;;;;;;5053432;28;20108;-76
2021/06/30 06:14:09;;;;;;;19.45;9.25;;;871.10;1689.60;;;;;;5081227;28;20032;-76
2021/06/30 06:16:34;;;;;;;14.73;8.27;;;896.00;1664.00;;;;;;5088270;28;20566;-76
2021/06/30 06:19:00;;;;;;;18.02;10.48;;;896.00;1638.40;;;;;;5075294;28;20107;-76
2021/06/30 06:21:29;;;;;;;17.05;9.50;;;896.20;1612.80;;;;;;5072214;28;20031;-76
2021/06/30 06:23:58;;;;;;;28.40;10.38;;;896.30;1587.20;;;;;;5061900;28;20040;-76
2021/06/30 06:26:23;;;;;;;17.00;9.15;;;896.50;1587.20;;;;;;5079414;28;20086;-76
2021/06/30 06:29:09;;;;;;;22.15;10.07;;;896.50;1561.60;;;;;;5076941;28;20035;-76
2021/06/30 06:31:35;;;;;;;16.45;8.60;;;896.90;1561.60;;;;;;5068980;28;20479;-76
2021/06/30 06:34:00;;;;;;;22.17;13.32;;;921.70;1536.00;;;;;;5085180;28;20043;-76
2021/06/30 06:36:29;;;;;;;21.27;11.68;;;922.00;1510.40;;;;;;5063628;28;20707;-77
2021/06/30 06:38:55;;;;;;;16.88;8.38;;;922.10;1484.80;;;;;;5058647;28;20028;-76
2021/06/30 06:41:20;;;;;;;18.70;8.35;;;922.20;1484.80;;;;;;5069481;28;20433;-76
2021/06/30 06:44:05;;;;;;;18.05;9.40;;;922.40;1484.80;;;;;;5088327;28;20035;-76
2021/06/30 06:46:34;;;;;;;17.75;8.00;;;947.40;1433.60;;;;;;5073283;28;20028;-76
2021/06/30 06:49:02;;;;;;;21.05;8.82;;;947.40;1433.60;;;;;;5080695;28;20023;-77
2021/06/30 06:51:28;;;;;;;17.38;7.70;;;947.70;1433.60;;;;;;5071114;28;20078;-77
2021/06/30 06:53:54;;;;;;;22.10;9.77;;;947.60;1408.00;;;;;;5060254;28;20036;-77
2021/06/30 06:56:26;;;;;;;21.17;8.70;;;947.50;1408.00;;;;;;5072915;28;20032;-77
2021/06/30 06:58:55;;;;;;;19.48;8.27;;;947.60;1408.00;;;;;;5088234;28;20475;-77
2021/06/30 07:01:25;;;;;;;18.15;8.48;;;947.80;1408.00;;;;;;5056345;28;20120;-76
2021/06/30 07:03:51;;;;;;;17.02;8.48;;;947.90;1382.40;;;;;;5075706;28;20016;-76
2021/06/30 07:06:17;;;;;;;14.90;8.85;;;948.10;1356.80;;;;;;5076389;28;20043;-76
2021/06/30 07:08:46;;;;;;;16.42;7.00;;;972.90;1356.80;;;;;;5080202;28;20069;-77
2021/06/30 07:11:15;;;;;;;42.90;20.55;;;973.10;1356.80;;;;;;5064297;28;20032;-77
2021/06/30 07:13:41;;;;;;;17.08;8.88;;;973.30;1382.40;;;;;;5056030;28;20124;-76
2021/06/30 07:16:07;;;;;;;11.38;6.35;;;973.50;1331.20;;;;;;5074388;28;20091;-77
2021/06/30 07:18:36;;;;;;;17.42;8.40;;;973.60;1331.20;;;;;;5073599;28;20024;-76
2021/06/30 07:21:12;;;;;;;37.13;30.58;;;973.50;1331.20;;;;;;5064837;28;20470;-76
2021/06/30 07:23:38;;;;;;;30.77;20.65;;;973.70;1331.20;;;;;;5073930;28;20130;-76
2021/06/30 07:26:15;;;;;;;24.15;9.35;;;998.40;1331.20;;;;;;5072657;28;20558;-77
2021/06/30 07:28:40;;;;;;;16.52;7.35;;;998.70;1305.60;;;;;;5056198;28;20123;-76
2021/06/30 07:31:12;;;;;;;15.40;7.20;;;998.70;1305.60;;;;;;5069462;28;20132;-76
2021/06/30 07:33:40;;;;;;;31.95;17.20;;;998.70;1280.00;;;;;;5100268;28;20016;-76
2021/06/30 07:36:10;;;;;;;24.20;15.48;;;998.90;1280.00;;;;;;5080387;28;20013;-77
2021/06/30 07:38:39;;;;;;;26.27;19.30;;;998.80;1254.40;;;;;;5078929;28;20012;-77
2021/06/30 07:41:12;;;;;;;14.82;7.07;;;998.90;1254.40;;;;;;5074947;28;20036;-75
2021/06/30 07:43:40;;;;;;;27.00;10.18;;;998.90;1228.80;;;;;;5061132;28;20028;-76
2021/06/30 07:46:09;;;;;;;12.15;6.80;;;999.00;1203.20;;;;;;5064799;28;20028;-76
2021/06/30 07:48:42;;;;;;;30.27;21.10;;;999.20;1203.20;;;;;;5091085;28;20417;-76
2021/06/30 07:51:19;;;;;;;19.83;12.07;;;1024.00;1177.60;;;;;;5083572;28;20027;-77
2021/06/30 07:53:45;;;;;;;17.00;8.57;;;1024.00;1177.60;;;;;;5069605;28;20020;-77
2021/06/30 07:56:11;;;;;;;22.20;8.20;;;999.30;1177.60;;;;;;5065011;28;20102;-76
2021/06/30 07:58:43;;;;;;;17.10;7.38;;;1024.10;1177.60;;;;;;5073228;28;20074;-77
2021/06/30 08:01:09;;;;;;;14.63;6.38;;;1024.50;1177.60;;;;;;5063917;28;20074;-77
2021/06/30 08:03:34;;;;;;;16.65;7.30;;;1024.70;1152.00;;;;;;5074375;28;20052;-77
2021/06/30 08:06:00;;;;;;;12.73;7.45;;;1024.70;1152.00;;;;;;5073205;28;20025;-77
2021/06/30 08:08:28;;;;;;;10.70;6.18;;;1024.70;1126.40;;;;;;5085654;28;20492;-76
2021/06/30 08:10:54;;;;;;;20.95;6.82;;;1024.80;1152.00;;;;;;5069678;28;20020;-77
2021/06/30 08:13:23;;;;;;;21.63;10.73;;;1024.90;1126.40;;;;;;5074609;28;20028;-77
2021/06/30 08:15:49;;;;;;;14.43;6.47;;;1049.60;1126.40;;;;;;5071300;28;20104;-77
2021/06/30 08:18:15;;;;;;;13.55;6.50;;;1049.90;1100.80;;;;;;5072621;28;20099;-77
2021/06/30 08:20:48;;;;;;;22.67;12.50;;;1050.20;1075.20;;;;;;5058406;28;20021;-76
2021/06/30 08:23:20;;;;;;;11.65;6.70;;;1050.40;1100.80;;;;;;5066476;28;20036;-76
2021/06/30 08:25:46;;;;;;;16.88;7.97;;;1075.20;1075.20;;;;;;5070715;28;20395;-78
2021/06/30 08:28:25;;;;;;;14.73;8.30;;;1075.40;1049.60;;;;;;5068707;28;20028;-76
2021/06/30 08:30:54;;;;;;;18.23;6.70;;;1075.50;1049.60;;;;;;5068938;28;20107;-76
2021/06/30 08:33:36;;;;;;;18.73;9.35;;;1075.50;1024.00;;;;;;5083061;28;20069;-77
2021/06/30 08:36:08;;;;;;;16.90;7.20;;;1075.70;1024.00;;;;;;5091766;28;20016;-76
2021/06/30 08:38:37;;;;;;;14.95;6.65;;;1075.40;998.40;;;;;;5081083;28;20060;-76
2021/06/30 08:41:06;;;;;;;13.25;8.77;;;1075.60;998.40;;;;;;5062241;28;20660;-76
2021/06/30 08:43:38;;;;;;;25.00;10.70;;;1075.60;972.80;;;;;;5067876;28;20082;-77
2021/06/30 08:46:08;;;;;;;24.27;11.73;;;1075.80;998.40;;;;;;5072663;28;20037;-77
2021/06/30 08:48:40;;;;;;;48.25;39.95;;;1076.00;972.80;;;;;;5071781;28;20036;-77
2021/06/30 08:51:08;;;;;;;16.02;8.52;;;1100.90;972.80;;;;;;5088980;28;20023;-78
2021/06/30 08:53:41;;;;;;;23.60;9.07;;;1101.10;972.80;;;;;;5085391;28;20493;-77
2021/06/30 08:56:19;;;;;;;15.07;7.55;;;1101.10;972.80;;;;;;5090180;28;20077;-77
2021/06/30 08:58:50;;;;;;;16.52;8.27;;;1101.30;972.80;;;;;;5090080;28;20026;-78
2021/06/30 09:01:19;;;;;;;18.20;8.30;;;1101.40;972.80;;;;;;5090426;28;20020;-77
2021/06/30 09:03:50;;;;;;;20.23;5.90;;;1101.10;998.40;;;;;;5089161;28;20023;-76
2021/06/30 09:06:18;;;;;;;13.18;8.48;;;1101.30;998.40;;;;;;5089166;28;20009;-77
2021/06/30 09:08:43;;;;;;;13.50;6.25;;;1101.60;998.40;;;;;;5090463;28;20031;-77
2021/06/30 09:11:20;;;;;;;17.65;6.90;;;1126.50;998.40;;;;;;5080776;28;20032;-75
2021/06/30 09:13:50;;;;;;;13.40;7.47;;;1126.70;972.80;;;;;;5087368;28;20020;-75
2021/06/30 09:19:09;;;;;;;10.15;5.45;;;1126.70;972.80;;;;;;5088221;28;20088;-76
2021/06/30 09:21:35;;;;;;;13.40;6.47;;;1127.20;947.20;;;;;;5089959;28;20021;-75
2021/06/30 09:24:18;;;;;;;14.27;7.38;;;1127.10;947.20;;;;;;5090282;28;20023;-75
2021/06/30 09:26:56;;;;;;;12.05;9.07;;;1126.90;947.20;;;;;;5089834;28;20048;-75
2021/06/30 09:29:23;;;;;;;10.48;5.80;;;1127.30;921.60;;;;;;5087948;28;20069;-75
2021/06/30 09:32:12;;;;;;;21.73;6.35;;;1152.10;870.40;;;;;;5089446;28;20509;-75
2021/06/30 09:34:38;;;;;;;14.15;5.13;;;1152.20;844.80;;;;;;5086964;28;20052;-75
2021/06/30 09:37:15;;;;;;;13.55;5.10;;;1152.30;844.80;;;;;;5087671;28;20084;-75
2021/06/30 09:39:55;;;;;;;11.05;5.40;;;1152.60;844.80;;;;;;5063133;28;20040;-75
2021/06/30 09:42:33;;;;;;;14.10;6.18;;;1152.70;844.80;;;;;;5078321;28;20016;-75
2021/06/30 09:45:14;;;;;;;11.98;5.82;;;1177.60;793.60;;;;;;5078421;28;20024;-75
2021/06/30 09:47:54;;;;;;;9.27;5.10;;;1177.80;768.00;;;;;;5072786;28;20059;-77
2021/06/30 09:50:42;;;;;;;11.15;5.22;;;1178.10;768.00;;;;;;5084277;28;20035;-78
2021/06/30 09:53:08;;;;;;;8.52;4.88;;;1178.20;768.00;;;;;;5069898;28;20075;-75
2021/06/30 09:55:46;;;;;;;17.30;13.02;;;1178.30;768.00;;;;;;5073053;28;20059;-77
2021/06/30 09:58:33;;;;;;;15.35;7.78;;;1203.20;768.00;;;;;;5072973;28;20024;-78
2021/06/30 10:01:17;;;;;;;12.55;5.47;;;1178.40;768.00;;;;;;5073741;28;20036;-78
2021/06/30 10:03:43;;;;;;;12.73;5.63;;;1203.40;793.60;;;;;;5092493;28;20063;-77
2021/06/30 10:06:34;;;;;;;7.53;4.90;;;1203.70;768.00;;;;;;5094224;28;20039;-77
2021/06/30 10:09:06;;;;;;;11.65;5.85;;;1203.80;742.40;;;;;;5089606;28;20415;-77
2021/06/30 10:11:35;;;;;;;14.77;4.57;;;1203.80;768.00;;;;;;5084959;28;20043;-76
2021/06/30 10:14:04;;;;;;;9.27;4.97;;;1203.80;742.40;;;;;;5070513;28;20054;-77
2021/06/30 10:16:30;;;;;;;13.18;4.85;;;1203.90;742.40;;;;;;5076140;28;20031;-77
2021/06/30 10:19:08;;;;;;;8.20;4.97;;;1203.90;742.40;;;;;;5088206;28;20157;-77
2021/06/30 10:21:46;;;;;;;10.65;5.05;;;1204.00;742.40;;;;;;5071124;28;20021;-78
2021/06/30 10:24:17;;;;;;;12.68;5.57;;;1203.70;742.40;;;;;;5064978;28;20024;-78
2021/06/30 10:26:46;;;;;;;12.95;4.35;;;1203.80;742.40;;;;;;5075780;28;20056;-79
2021/06/30 10:29:15;;;;;;;9.85;4.20;;;1203.70;742.40;;;;;;5063788;28;20024;-78
2021/06/30 10:31:49;;;;;;;12.23;4.85;;;1203.90;742.40;;;;;;5077046;28;20028;-78
2021/06/30 10:34:15;;;;;;;8.07;4.80;;;1228.80;768.00;;;;;;5095029;28;20479;-78
2021/06/30 10:37:08;;;;;;;7.43;4.43;;;1203.80;742.40;;;;;;5077194;28;20036;-77
2021/06/30 10:40:08;;;;;;;10.70;4.65;;;1228.80;768.00;;;;;;5069975;28;20372;-78
2021/06/30 10:42:40;;;;;;;9.10;4.47;;;1203.90;742.40;;;;;;5066493;28;20106;-77
2021/06/30 10:45:21;;;;;;;12.43;5.25;;;1228.80;768.00;;;;;;5087310;28;20036;-76
2021/06/30 10:48:09;;;;;;;10.25;5.70;;;1203.70;768.00;;;;;;5063643;28;20032;-77
2021/06/30 10:50:42;;;;;;;14.57;4.63;;;1229.10;768.00;;;;;;5078077;28;20024;-78
2021/06/30 10:53:22;;;;;;;16.73;4.38;;;1229.10;742.40;;;;;;5068148;28;20162;-77
2021/06/30 10:55:55;;;;;;;11.43;5.50;;;1229.30;716.80;;;;;;5087116;28;20047;-77
2021/06/30 10:58:29;;;;;;;14.32;3.75;;;1229.40;716.80;;;;;;5071615;28;20024;-78
2021/06/30 11:00:55;;;;;;;8.70;4.10;;;1229.40;716.80;;;;;;5073685;28;20032;-78
2021/06/30 11:03:47;;;;;;;9.98;4.60;;;1229.30;716.80;;;;;;5083290;28;20387;-78
2021/06/30 11:06:30;;;;;;;7.40;3.83;;;1229.60;716.80;;;;;;5064017;28;20033;-78
2021/06/30 11:12:11;;;;;;;7.80;4.07;;;1229.50;716.80;;;;;;5077336;28;20043;-78
2021/06/30 11:14:42;;;;;;;12.20;4.50;;;1229.40;742.40;;;;;;5087676;28;20016;-78
2021/06/30 11:17:07;;;;;;;10.27;3.92;;;1229.40;742.40;;;;;;5067549;28;20024;-77
2021/06/30 11:19:40;;;;;;;11.60;4.75;;;1229.60;716.80;;;;;;5080174;28;20039;-78
2021/06/30 11:22:23;;;;;;;11.25;5.40;;;1229.50;742.40;;;;;;5086999;28;20043;-78
2021/06/30 11:24:49;;;;;;;10.55;5.82;;;1229.40;742.40;;;;;;5073597;28;20169;-80
2021/06/30 11:27:22;;;;;;;10.23;4.47;;;1229.50;742.40;;;;;;5072315;28;20086;-78
2021/06/30 11:30:12;;;;;;;8.23;4.53;;;1254.40;742.40;;;;;;5058347;28;20025;-79
2021/06/30 11:32:42;;;;;;;10.65;4.88;;;1229.50;716.80;;;;;;5066533;28;20107;-78
2021/06/30 11:35:11;;;;;;;12.05;4.80;;;1229.40;716.80;;;;;;5073718;28;20013;-77
2021/06/30 11:37:42;;;;;;;10.35;3.58;;;1229.60;691.20;;;;;;5074051;28;20035;-78
2021/06/30 11:40:39;;;;;;;9.90;4.15;;;1229.40;691.20;;;;;;5064530;28;20029;-78
2021/06/30 11:43:13;;;;;;;9.05;5.38;;;1254.40;716.80;;;;;;5090058;28;20004;-78
2021/06/30 11:45:38;;;;;;;;;;;1254.60;716.80;;;;;;5070904;28;20028;-78
2021/06/30 11:48:13;;;;;;;12.23;5.20;;;1229.30;691.20;;;;;;5070374;28;19912;-78
2021/06/30 11:51:11;;;;;;;13.20;4.07;;;1229.40;691.20;;;;;;5066804;28;20032;-78
2021/06/30 11:53:46;;;;;;;12.35;5.45;;;1254.40;716.80;;;;;;5066132;28;20032;-78
2021/06/30 11:56:38;;;;;;;7.72;4.45;;;1254.70;691.20;;;;;;5070834;28;20111;-78
2021/06/30 11:59:20;;;;;;;8.30;3.97;;;1254.60;691.20;;;;;;5070882;28;20036;-78
2021/06/30 12:01:53;;;;;;;12.18;4.05;;;1254.70;716.80;;;;;;5080734;28;20025;-78
2021/06/30 12:04:42;;;;;;;11.60;5.65;;;1254.60;716.80;;;;;;5070052;28;20390;-77
2021/06/30 12:07:13;;;;;;;8.07;4.90;;;1254.40;742.40;;;;;;5055076;28;20033;-78
2021/06/30 12:09:42;;;;;;;12.48;4.60;;;1229.40;716.80;;;;;;5065663;28;20040;-78
2021/06/30 12:12:12;;;;;;;11.30;4.90;;;1254.40;742.40;;;;;;5052069;28;20488;-78
2021/06/30 12:14:49;;;;;;;11.45;5.07;;;1254.70;716.80;;;;;;5053030;28;20107;-78
2021/06/30 12:17:19;;;;;;;10.90;6.20;;;1255.10;691.20;;;;;;5067801;28;20031;-78
2021/06/30 12:19:46;;;;;;;9.00;4.45;;;1254.90;691.20;;;;;;5064083;28;20025;-78
2021/06/30 12:22:35;;;;;;;10.43;4.75;;;1255.10;665.60;;;;;;5053082;28;20020;-80
2021/06/30 12:25:18;;;;;;;15.68;4.53;;;1255.10;665.60;;;;;;4989008;28;20486;-81
2021/06/30 12:27:48;;;;;;;14.10;4.63;;;1254.90;691.20;;;;;;4950951;28;20051;-79